sensor_id;sensor_type;location;lat;lon;timestamp;pressure;altitude;pressure_sealevel;temperature;humidity
41706;BME280;27385;51.096;17.190;2023-11-18T00:02:17;100457.49;;;3.86;98.48
41706;BME280;27385;51.096;17.190;2023-11-18T00:04:47;100454.73;;;3.86;98.67
41706;BME280;27385;51.096;17.190;2023-11-18T00:07:17;100452.92;;;3.86;98.76
41706;BME280;27385;51.096;17.190;2023-11-18T00:09:48;100456.25;;;3.85;99.03
41706;BME280;27385;51.096;17.190;2023-11-18T00:12:18;100456.88;;;3.86;99.03
41706;BME280;27385;51.096;17.190;2023-11-18T00:14:49;100457.45;;;3.85;99.24
41706;BME280;27385;51.096;17.190;2023-11-18T00:17:18;100461.62;;;3.85;99.36
41706;BME280;27385;51.096;17.190;2023-11-18T00:19:50;100461.61;;;3.85;99.37
41706;BME280;27385;51.096;17.190;2023-11-18T00:22:21;100460.98;;;3.85;99.41
41706;BME280;27385;51.096;17.190;2023-11-18T00:24:52;100456.95;;;3.86;99.53
41706;BME280;27385;51.096;17.190;2023-11-18T00:27:23;100459.00;;;3.86;99.57
41706;BME280;27385;51.096;17.190;2023-11-18T00:29:56;100459.55;;;3.86;99.80
41706;BME280;27385;51.096;17.190;2023-11-18T00:32:28;100463.03;;;3.85;99.74
41706;BME280;27385;51.096;17.190;2023-11-18T00:34:59;100464.06;;;3.86;99.70
41706;BME280;27385;51.096;17.190;2023-11-18T00:37:30;100469.97;;;3.86;99.90
41706;BME280;27385;51.096;17.190;2023-11-18T00:40:00;100472.17;;;3.86;99.95
41706;BME280;27385;51.096;17.190;2023-11-18T00:42:30;100478.89;;;3.86;99.99
41706;BME280;27385;51.096;17.190;2023-11-18T00:45:00;100481.41;;;3.85;100.00
41706;BME280;27385;51.096;17.190;2023-11-18T00:47:31;100487.50;;;3.85;100.00
41706;BME280;27385;51.096;17.190;2023-11-18T00:50:01;100484.86;;;3.83;100.00
41706;BME280;27385;51.096;17.190;2023-11-18T00:52:31;100487.30;;;3.83;100.00
41706;BME280;27385;51.096;17.190;2023-11-18T00:55:02;100486.86;;;3.82;100.00
41706;BME280;27385;51.096;17.190;2023-11-18T00:57:32;100488.38;;;3.81;100.00
41706;BME280;27385;51.096;17.190;2023-11-18T01:00:02;100488.17;;;3.80;100.00
41706;BME280;27385;51.096;17.190;2023-11-18T01:02:33;100486.23;;;3.78;100.00
41706;BME280;27385;51.096;17.190;2023-11-18T01:05:04;100489.33;;;3.78;100.00
41706;BME280;27385;51.096;17.190;2023-11-18T01:07:35;100491.41;;;3.76;100.00
41706;BME280;27385;51.096;17.190;2023-11-18T01:10:06;100498.28;;;3.75;100.00
41706;BME280;27385;51.096;17.190;2023-11-18T01:12:39;100498.28;;;3.75;100.00
41706;BME280;27385;51.096;17.190;2023-11-18T01:15:12;100499.75;;;3.77;100.00
41706;BME280;27385;51.096;17.190;2023-11-18T01:17:45;100502.83;;;3.77;100.00
41706;BME280;27385;51.096;17.190;2023-11-18T01:20:36;100508.67;;;3.76;100.00
41706;BME280;27385;51.096;17.190;2023-11-18T01:23:07;100512.70;;;3.76;100.00
41706;BME280;27385;51.096;17.190;2023-11-18T01:25:37;100517.38;;;3.76;100.00
41706;BME280;27385;51.096;17.190;2023-11-18T01:28:09;100515.42;;;3.75;100.00
41706;BME280;27385;51.096;17.190;2023-11-18T01:30:41;100519.76;;;3.75;100.00
41706;BME280;27385;51.096;17.190;2023-11-18T01:33:13;100528.36;;;3.74;100.00
41706;BME280;27385;51.096;17.190;2023-11-18T01:35:44;100526.25;;;3.73;100.00
41706;BME280;27385;51.096;17.190;2023-11-18T01:38:14;100526.42;;;3.73;100.00
41706;BME280;27385;51.096;17.190;2023-11-18T01:40:44;100525.49;;;3.72;100.00
41706;BME280;27385;51.096;17.190;2023-11-18T01:43:15;100523.14;;;3.71;100.00
41706;BME280;27385;51.096;17.190;2023-11-18T01:45:45;100528.33;;;3.72;100.00
41706;BME280;27385;51.096;17.190;2023-11-18T01:48:16;100529.21;;;3.72;100.00
41706;BME280;27385;51.096;17.190;2023-11-18T01:50:46;100531.34;;;3.72;100.00
41706;BME280;27385;51.096;17.190;2023-11-18T01:53:16;100532.05;;;3.72;100.00
41706;BME280;27385;51.096;17.190;2023-11-18T01:55:46;100533.13;;;3.73;100.00
41706;BME280;27385;51.096;17.190;2023-11-18T01:58:17;100538.14;;;3.74;100.00
41706;BME280;27385;51.096;17.190;2023-11-18T02:00:48;100542.63;;;3.75;100.00
41706;BME280;27385;51.096;17.190;2023-11-18T02:03:20;100542.83;;;3.77;100.00
41706;BME280;27385;51.096;17.190;2023-11-18T02:05:50;100547.48;;;3.77;100.00
41706;BME280;27385;51.096;17.190;2023-11-18T02:08:21;100554.81;;;3.77;100.00
41706;BME280;27385;51.096;17.190;2023-11-18T02:10:54;100558.48;;;3.76;100.00
41706;BME280;27385;51.096;17.190;2023-11-18T02:13:29;100566.17;;;3.73;100.00
41706;BME280;27385;51.096;17.190;2023-11-18T02:16:11;100566.00;;;3.70;100.00
41706;BME280;27385;51.096;17.190;2023-11-18T02:18:42;100569.74;;;3.68;100.00
41706;BME280;27385;51.096;17.190;2023-11-18T02:21:13;100575.77;;;3.66;100.00
41706;BME280;27385;51.096;17.190;2023-11-18T02:23:44;100580.14;;;3.65;100.00
41706;BME280;27385;51.096;17.190;2023-11-18T02:26:21;100584.13;;;3.64;100.00
41706;BME280;27385;51.096;17.190;2023-11-18T02:28:52;100587.60;;;3.63;100.00
41706;BME280;27385;51.096;17.190;2023-11-18T02:31:22;100586.90;;;3.62;100.00
41706;BME280;27385;51.096;17.190;2023-11-18T02:33:55;100585.35;;;3.61;100.00
41706;BME280;27385;51.096;17.190;2023-11-18T02:36:32;100589.61;;;3.61;100.00
41706;BME280;27385;51.096;17.190;2023-11-18T02:39:08;100598.30;;;3.60;100.00
41706;BME280;27385;51.096;17.190;2023-11-18T02:41:45;100597.13;;;3.60;100.00
41706;BME280;27385;51.096;17.190;2023-11-18T02:44:16;100599.64;;;3.60;100.00
41706;BME280;27385;51.096;17.190;2023-11-18T02:46:48;100602.95;;;3.60;100.00
41706;BME280;27385;51.096;17.190;2023-11-18T02:49:18;100603.36;;;3.60;100.00
41706;BME280;27385;51.096;17.190;2023-11-18T02:51:47;100610.91;;;3.60;100.00
41706;BME280;27385;51.096;17.190;2023-11-18T02:54:17;100617.60;;;3.61;100.00
41706;BME280;27385;51.096;17.190;2023-11-18T02:56:48;100621.64;;;3.61;100.00
41706;BME280;27385;51.096;17.190;2023-11-18T03:01:59;100627.06;;;3.62;100.00
41706;BME280;27385;51.096;17.190;2023-11-18T03:04:31;100624.84;;;3.63;100.00
41706;BME280;27385;51.096;17.190;2023-11-18T03:07:01;100629.67;;;3.62;100.00
41706;BME280;27385;51.096;17.190;2023-11-18T03:09:33;100632.11;;;3.62;100.00
41706;BME280;27385;51.096;17.190;2023-11-18T03:12:03;100638.36;;;3.61;100.00
41706;BME280;27385;51.096;17.190;2023-11-18T03:14:34;100638.76;;;3.60;100.00
41706;BME280;27385;51.096;17.190;2023-11-18T03:17:04;100645.41;;;3.60;100.00
41706;BME280;27385;51.096;17.190;2023-11-18T03:19:34;100647.08;;;3.58;100.00
41706;BME280;27385;51.096;17.190;2023-11-18T03:22:04;100652.70;;;3.57;100.00
41706;BME280;27385;51.096;17.190;2023-11-18T03:24:34;100659.17;;;3.57;100.00
41706;BME280;27385;51.096;17.190;2023-11-18T03:27:03;100661.80;;;3.56;100.00
41706;BME280;27385;51.096;17.190;2023-11-18T03:29:33;100666.25;;;3.54;100.00
41706;BME280;27385;51.096;17.190;2023-11-18T03:32:04;100664.61;;;3.53;100.00
41706;BME280;27385;51.096;17.190;2023-11-18T03:34:34;100668.26;;;3.52;100.00
41706;BME280;27385;51.096;17.190;2023-11-18T03:37:05;100672.51;;;3.52;100.00
41706;BME280;27385;51.096;17.190;2023-11-18T03:39:35;100679.15;;;3.51;100.00
41706;BME280;27385;51.096;17.190;2023-11-18T03:42:05;100678.71;;;3.50;100.00
41706;BME280;27385;51.096;17.190;2023-11-18T03:44:36;100678.33;;;3.49;100.00
41706;BME280;27385;51.096;17.190;2023-11-18T03:47:06;100677.93;;;3.49;100.00
41706;BME280;27385;51.096;17.190;2023-11-18T03:49:36;100678.48;;;3.49;100.00
41706;BME280;27385;51.096;17.190;2023-11-18T03:52:07;100678.73;;;3.48;100.00
41706;BME280;27385;51.096;17.190;2023-11-18T03:54:37;100677.09;;;3.47;100.00
41706;BME280;27385;51.096;17.190;2023-11-18T03:57:07;100679.88;;;3.45;100.00
41706;BME280;27385;51.096;17.190;2023-11-18T03:59:37;100686.11;;;3.46;100.00
41706;BME280;27385;51.096;17.190;2023-11-18T04:02:11;100690.40;;;3.43;100.00
41706;BME280;27385;51.096;17.190;2023-11-18T04:04:41;100688.89;;;3.40;100.00
41706;BME280;27385;51.096;17.190;2023-11-18T04:07:11;100695.64;;;3.36;100.00
41706;BME280;27385;51.096;17.190;2023-11-18T04:09:43;100701.44;;;3.29;100.00
41706;BME280;27385;51.096;17.190;2023-11-18T04:12:35;100703.89;;;3.23;100.00
41706;BME280;27385;51.096;17.190;2023-11-18T04:15:06;100708.61;;;3.19;100.00
41706;BME280;27385;51.096;17.190;2023-11-18T04:17:36;100711.74;;;3.15;100.00
41706;BME280;27385;51.096;17.190;2023-11-18T04:20:07;100708.86;;;3.13;100.00
41706;BME280;27385;51.096;17.190;2023-11-18T04:22:39;100711.16;;;3.11;100.00
41706;BME280;27385;51.096;17.190;2023-11-18T04:25:09;100714.96;;;3.11;100.00
41706;BME280;27385;51.096;17.190;2023-11-18T04:27:40;100718.90;;;3.11;100.00
41706;BME280;27385;51.096;17.190;2023-11-18T04:30:11;100713.39;;;3.10;100.00
41706;BME280;27385;51.096;17.190;2023-11-18T04:32:42;100713.39;;;3.10;100.00
41706;BME280;27385;51.096;17.190;2023-11-18T04:35:12;100715.14;;;3.10;100.00
41706;BME280;27385;51.096;17.190;2023-11-18T04:37:44;100715.92;;;3.10;100.00
41706;BME280;27385;51.096;17.190;2023-11-18T04:40:14;100720.58;;;3.09;100.00
41706;BME280;27385;51.096;17.190;2023-11-18T04:42:44;100722.70;;;3.10;100.00
41706;BME280;27385;51.096;17.190;2023-11-18T04:45:15;100719.33;;;3.09;100.00
41706;BME280;27385;51.096;17.190;2023-11-18T04:47:46;100722.63;;;3.10;100.00
41706;BME280;27385;51.096;17.190;2023-11-18T04:50:18;100722.53;;;3.10;100.00
41706;BME280;27385;51.096;17.190;2023-11-18T04:52:48;100727.26;;;3.10;100.00
41706;BME280;27385;51.096;17.190;2023-11-18T04:55:19;100728.67;;;3.11;100.00
41706;BME280;27385;51.096;17.190;2023-11-18T04:57:49;100729.87;;;3.10;100.00
41706;BME280;27385;51.096;17.190;2023-11-18T05:00:19;100727.25;;;3.11;100.00
41706;BME280;27385;51.096;17.190;2023-11-18T05:02:49;100726.77;;;3.11;100.00
41706;BME280;27385;51.096;17.190;2023-11-18T05:05:19;100731.28;;;3.11;100.00
41706;BME280;27385;51.096;17.190;2023-11-18T05:07:49;100735.93;;;3.10;100.00
41706;BME280;27385;51.096;17.190;2023-11-18T05:10:19;100738.88;;;3.08;100.00
41706;BME280;27385;51.096;17.190;2023-11-18T05:12:49;100738.45;;;3.06;100.00
41706;BME280;27385;51.096;17.190;2023-11-18T05:15:23;100738.39;;;3.04;100.00
41706;BME280;27385;51.096;17.190;2023-11-18T05:17:54;100740.01;;;3.02;100.00
41706;BME280;27385;51.096;17.190;2023-11-18T05:20:26;100739.41;;;2.99;100.00
41706;BME280;27385;51.096;17.190;2023-11-18T05:22:57;100746.20;;;2.98;100.00
41706;BME280;27385;51.096;17.190;2023-11-18T05:25:28;100749.05;;;2.97;100.00
41706;BME280;27385;51.096;17.190;2023-11-18T05:28:01;100752.85;;;2.96;100.00
41706;BME280;27385;51.096;17.190;2023-11-18T05:30:32;100753.48;;;2.96;100.00
41706;BME280;27385;51.096;17.190;2023-11-18T05:33:03;100752.94;;;2.95;100.00
41706;BME280;27385;51.096;17.190;2023-11-18T05:35:34;100757.98;;;2.96;100.00
41706;BME280;27385;51.096;17.190;2023-11-18T05:38:04;100763.72;;;2.96;100.00
41706;BME280;27385;51.096;17.190;2023-11-18T05:40:35;100764.95;;;2.98;100.00
41706;BME280;27385;51.096;17.190;2023-11-18T05:43:07;100770.22;;;2.99;100.00
41706;BME280;27385;51.096;17.190;2023-11-18T05:45:44;100772.96;;;3.00;100.00
41706;BME280;27385;51.096;17.190;2023-11-18T05:48:34;100772.54;;;3.02;100.00
41706;BME280;27385;51.096;17.190;2023-11-18T05:51:05;100775.13;;;3.04;100.00
41706;BME280;27385;51.096;17.190;2023-11-18T05:53:35;100771.73;;;3.04;100.00
41706;BME280;27385;51.096;17.190;2023-11-18T05:56:09;100771.72;;;3.05;100.00
41706;BME280;27385;51.096;17.190;2023-11-18T05:58:38;100769.90;;;3.05;100.00
41706;BME280;27385;51.096;17.190;2023-11-18T06:01:08;100772.41;;;3.05;100.00
41706;BME280;27385;51.096;17.190;2023-11-18T06:03:39;100777.78;;;3.05;100.00
41706;BME280;27385;51.096;17.190;2023-11-18T06:06:09;100784.48;;;3.06;100.00
41706;BME280;27385;51.096;17.190;2023-11-18T06:08:40;100788.87;;;3.06;100.00
41706;BME280;27385;51.096;17.190;2023-11-18T06:11:11;100793.44;;;3.06;100.00
41706;BME280;27385;51.096;17.190;2023-11-18T06:13:44;100795.50;;;3.06;100.00
41706;BME280;27385;51.096;17.190;2023-11-18T06:16:15;100799.48;;;3.03;100.00
41706;BME280;27385;51.096;17.190;2023-11-18T06:18:48;100802.55;;;3.03;100.00
41706;BME280;27385;51.096;17.190;2023-11-18T06:21:18;100803.60;;;3.02;100.00
41706;BME280;27385;51.096;17.190;2023-11-18T06:23:48;100806.29;;;3.01;100.00
41706;BME280;27385;51.096;17.190;2023-11-18T06:26:18;100807.48;;;3.00;100.00
41706;BME280;27385;51.096;17.190;2023-11-18T06:28:47;100806.13;;;3.00;100.00
41706;BME280;27385;51.096;17.190;2023-11-18T06:34:39;100810.35;;;3.03;100.00
41706;BME280;27385;51.096;17.190;2023-11-18T06:37:12;100810.65;;;3.04;100.00
41706;BME280;27385;51.096;17.190;2023-11-18T06:39:51;100808.44;;;3.05;100.00
41706;BME280;27385;51.096;17.190;2023-11-18T06:42:21;100815.61;;;3.05;100.00
41706;BME280;27385;51.096;17.190;2023-11-18T06:44:51;100818.99;;;3.06;100.00
41706;BME280;27385;51.096;17.190;2023-11-18T06:47:22;100828.81;;;3.07;100.00
41706;BME280;27385;51.096;17.190;2023-11-18T06:49:53;100830.55;;;3.07;100.00
41706;BME280;27385;51.096;17.190;2023-11-18T06:52:23;100835.89;;;3.08;100.00
41706;BME280;27385;51.096;17.190;2023-11-18T06:54:54;100841.46;;;3.10;100.00
41706;BME280;27385;51.096;17.190;2023-11-18T06:57:25;100841.69;;;3.12;100.00
41706;BME280;27385;51.096;17.190;2023-11-18T06:59:54;100845.69;;;3.13;100.00
41706;BME280;27385;51.096;17.190;2023-11-18T07:02:24;100850.09;;;3.14;100.00
41706;BME280;27385;51.096;17.190;2023-11-18T07:04:54;100855.67;;;3.16;100.00
41706;BME280;27385;51.096;17.190;2023-11-18T07:07:24;100861.41;;;3.16;100.00
41706;BME280;27385;51.096;17.190;2023-11-18T07:09:54;100864.71;;;3.17;100.00
41706;BME280;27385;51.096;17.190;2023-11-18T07:12:26;100865.73;;;3.18;100.00
41706;BME280;27385;51.096;17.190;2023-11-18T07:15:12;100866.60;;;3.18;100.00
41706;BME280;27385;51.096;17.190;2023-11-18T07:17:47;100870.07;;;3.18;100.00
41706;BME280;27385;51.096;17.190;2023-11-18T07:20:18;100872.12;;;3.17;100.00
41706;BME280;27385;51.096;17.190;2023-11-18T07:22:53;100868.42;;;3.17;100.00
41706;BME280;27385;51.096;17.190;2023-11-18T07:25:23;100865.41;;;3.18;100.00
41706;BME280;27385;51.096;17.190;2023-11-18T07:27:54;100866.27;;;3.18;100.00
41706;BME280;27385;51.096;17.190;2023-11-18T07:30:26;100868.63;;;3.19;100.00
41706;BME280;27385;51.096;17.190;2023-11-18T07:32:59;100869.39;;;3.20;100.00
41706;BME280;27385;51.096;17.190;2023-11-18T07:35:34;100874.66;;;3.22;100.00
41706;BME280;27385;51.096;17.190;2023-11-18T07:38:06;100874.64;;;3.23;100.00
41706;BME280;27385;51.096;17.190;2023-11-18T07:40:38;100879.99;;;3.24;100.00
41706;BME280;27385;51.096;17.190;2023-11-18T07:43:14;100889.86;;;3.24;100.00
41706;BME280;27385;51.096;17.190;2023-11-18T07:45:52;100886.45;;;3.25;100.00
41706;BME280;27385;51.096;17.190;2023-11-18T07:48:23;100888.86;;;3.27;100.00
41706;BME280;27385;51.096;17.190;2023-11-18T07:50:53;100894.13;;;3.29;100.00
41706;BME280;27385;51.096;17.190;2023-11-18T07:53:22;100896.16;;;3.30;100.00
41706;BME280;27385;51.096;17.190;2023-11-18T07:55:52;100893.78;;;3.31;100.00
41706;BME280;27385;51.096;17.190;2023-11-18T07:58:22;100895.02;;;3.33;100.00
41706;BME280;27385;51.096;17.190;2023-11-18T08:00:53;100894.93;;;3.34;100.00
41706;BME280;27385;51.096;17.190;2023-11-18T08:03:23;100894.46;;;3.34;100.00
41706;BME280;27385;51.096;17.190;2023-11-18T08:05:57;100892.96;;;3.34;100.00
41706;BME280;27385;51.096;17.190;2023-11-18T08:08:28;100896.75;;;3.34;100.00
41706;BME280;27385;51.096;17.190;2023-11-18T08:11:00;100895.54;;;3.36;100.00
41706;BME280;27385;51.096;17.190;2023-11-18T08:13:31;100897.48;;;3.39;100.00
41706;BME280;27385;51.096;17.190;2023-11-18T08:16:03;100906.13;;;3.40;100.00
41706;BME280;27385;51.096;17.190;2023-11-18T08:18:35;100903.89;;;3.41;100.00
41706;BME280;27385;51.096;17.190;2023-11-18T08:21:06;100904.66;;;3.43;100.00
41706;BME280;27385;51.096;17.190;2023-11-18T08:23:37;100904.39;;;3.45;100.00
41706;BME280;27385;51.096;17.190;2023-11-18T08:26:07;100905.15;;;3.47;100.00
41706;BME280;27385;51.096;17.190;2023-11-18T08:28:40;100906.33;;;3.49;100.00
41706;BME280;27385;51.096;17.190;2023-11-18T08:31:11;100907.39;;;3.52;100.00
41706;BME280;27385;51.096;17.190;2023-11-18T08:33:47;100903.17;;;3.55;100.00
41706;BME280;27385;51.096;17.190;2023-11-18T08:36:18;100904.91;;;3.59;100.00
41706;BME280;27385;51.096;17.190;2023-11-18T08:38:48;100907.41;;;3.62;100.00
41706;BME280;27385;51.096;17.190;2023-11-18T08:41:19;100912.82;;;3.64;100.00
41706;BME280;27385;51.096;17.190;2023-11-18T08:43:51;100918.14;;;3.66;100.00
41706;BME280;27385;51.096;17.190;2023-11-18T08:46:42;100922.39;;;3.68;100.00
41706;BME280;27385;51.096;17.190;2023-11-18T08:49:12;100927.80;;;3.71;100.00
41706;BME280;27385;51.096;17.190;2023-11-18T08:51:42;100929.84;;;3.72;100.00
41706;BME280;27385;51.096;17.190;2023-11-18T08:54:13;100932.95;;;3.74;100.00
41706;BME280;27385;51.096;17.190;2023-11-18T08:56:54;100933.02;;;3.75;100.00
41706;BME280;27385;51.096;17.190;2023-11-18T08:59:26;100938.70;;;3.76;100.00
41706;BME280;27385;51.096;17.190;2023-11-18T09:01:59;100945.00;;;3.76;100.00
41706;BME280;27385;51.096;17.190;2023-11-18T09:04:54;100952.71;;;3.78;100.00
41706;BME280;27385;51.096;17.190;2023-11-18T09:07:26;100955.08;;;3.78;100.00
41706;BME280;27385;51.096;17.190;2023-11-18T09:09:57;100956.32;;;3.79;100.00
41706;BME280;27385;51.096;17.190;2023-11-18T09:12:27;100962.16;;;3.79;100.00
41706;BME280;27385;51.096;17.190;2023-11-18T09:14:57;100970.92;;;3.78;100.00
41706;BME280;27385;51.096;17.190;2023-11-18T09:17:30;100972.27;;;3.77;100.00
41706;BME280;27385;51.096;17.190;2023-11-18T09:20:00;100974.83;;;3.75;100.00
41706;BME280;27385;51.096;17.190;2023-11-18T09:22:37;100977.27;;;3.76;100.00
41706;BME280;27385;51.096;17.190;2023-11-18T09:25:09;100972.46;;;3.76;100.00
41706;BME280;27385;51.096;17.190;2023-11-18T09:27:44;100981.77;;;3.75;100.00
41706;BME280;27385;51.096;17.190;2023-11-18T09:30:18;100979.91;;;3.74;100.00
41706;BME280;27385;51.096;17.190;2023-11-18T09:32:48;100988.66;;;3.74;100.00
41706;BME280;27385;51.096;17.190;2023-11-18T09:35:20;100988.11;;;3.74;100.00
41706;BME280;27385;51.096;17.190;2023-11-18T09:37:54;100989.93;;;3.73;100.00
41706;BME280;27385;51.096;17.190;2023-11-18T09:40:28;100996.66;;;3.71;100.00
41706;BME280;27385;51.096;17.190;2023-11-18T09:42:59;100994.79;;;3.70;100.00
41706;BME280;27385;51.096;17.190;2023-11-18T09:45:37;100990.54;;;3.69;100.00
41706;BME280;27385;51.096;17.190;2023-11-18T09:48:07;100995.60;;;3.68;100.00
41706;BME280;27385;51.096;17.190;2023-11-18T09:50:40;100999.94;;;3.69;100.00
41706;BME280;27385;51.096;17.190;2023-11-18T09:53:12;101003.50;;;3.67;100.00
41706;BME280;27385;51.096;17.190;2023-11-18T09:55:45;101005.63;;;3.67;100.00
41706;BME280;27385;51.096;17.190;2023-11-18T09:58:34;101003.97;;;3.67;100.00
41706;BME280;27385;51.096;17.190;2023-11-18T10:01:09;101005.78;;;3.68;100.00
41706;BME280;27385;51.096;17.190;2023-11-18T10:03:42;101003.08;;;3.69;100.00
41706;BME280;27385;51.096;17.190;2023-11-18T10:06:14;101005.80;;;3.72;100.00
41706;BME280;27385;51.096;17.190;2023-11-18T10:08:44;101006.65;;;3.74;100.00
41706;BME280;27385;51.096;17.190;2023-11-18T10:11:17;101009.63;;;3.76;100.00
41706;BME280;27385;51.096;17.190;2023-11-18T10:13:51;101012.90;;;3.78;100.00
41706;BME280;27385;51.096;17.190;2023-11-18T10:16:23;101010.02;;;3.81;100.00
41706;BME280;27385;51.096;17.190;2023-11-18T10:19:03;101013.48;;;3.82;100.00
41706;BME280;27385;51.096;17.190;2023-11-18T10:21:37;101019.30;;;3.84;100.00
41706;BME280;27385;51.096;17.190;2023-11-18T10:24:09;101017.23;;;3.84;100.00
41706;BME280;27385;51.096;17.190;2023-11-18T10:26:43;101018.96;;;3.85;100.00
41706;BME280;27385;51.096;17.190;2023-11-18T10:29:34;101023.38;;;3.87;100.00
41706;BME280;27385;51.096;17.190;2023-11-18T10:32:06;101025.09;;;3.88;100.00
41706;BME280;27385;51.096;17.190;2023-11-18T10:34:45;101022.53;;;3.90;100.00
41706;BME280;27385;51.096;17.190;2023-11-18T10:37:18;101030.66;;;3.91;100.00
41706;BME280;27385;51.096;17.190;2023-11-18T10:39:55;101033.11;;;3.91;100.00
41706;BME280;27385;51.096;17.190;2023-11-18T10:42:27;101038.25;;;3.89;100.00
41706;BME280;27385;51.096;17.190;2023-11-18T10:45:01;101040.40;;;3.88;100.00
41706;BME280;27385;51.096;17.190;2023-11-18T10:47:34;101040.71;;;3.88;100.00
41706;BME280;27385;51.096;17.190;2023-11-18T10:50:07;101044.58;;;3.88;100.00
41706;BME280;27385;51.096;17.190;2023-11-18T10:52:39;101044.90;;;3.87;100.00
41706;BME280;27385;51.096;17.190;2023-11-18T10:55:15;101044.91;;;3.87;100.00
41706;BME280;27385;51.096;17.190;2023-11-18T10:58:07;101045.38;;;3.88;100.00
41706;BME280;27385;51.096;17.190;2023-11-18T11:00:49;101044.02;;;3.88;100.00
41706;BME280;27385;51.096;17.190;2023-11-18T11:03:21;101042.27;;;3.89;100.00
41706;BME280;27385;51.096;17.190;2023-11-18T11:05:53;101047.14;;;3.91;100.00
41706;BME280;27385;51.096;17.190;2023-11-18T11:08:45;101053.29;;;3.93;100.00
41706;BME280;27385;51.096;17.190;2023-11-18T11:11:17;101051.92;;;3.94;100.00
41706;BME280;27385;51.096;17.190;2023-11-18T11:13:51;101056.56;;;3.95;100.00
41706;BME280;27385;51.096;17.190;2023-11-18T11:16:28;101054.66;;;3.96;100.00
41706;BME280;27385;51.096;17.190;2023-11-18T11:19:03;101054.23;;;3.98;100.00
41706;BME280;27385;51.096;17.190;2023-11-18T11:21:59;101058.70;;;4.00;100.00
41706;BME280;27385;51.096;17.190;2023-11-18T11:27:21;101067.69;;;3.95;100.00
41706;BME280;27385;51.096;17.190;2023-11-18T11:30:20;101072.59;;;3.94;100.00
41706;BME280;27385;51.096;17.190;2023-11-18T11:33:16;101074.55;;;3.96;100.00
41706;BME280;27385;51.096;17.190;2023-11-18T11:36:01;101078.98;;;3.95;100.00
41706;BME280;27385;51.096;17.190;2023-11-18T11:38:40;101084.26;;;3.91;100.00
41706;BME280;27385;51.096;17.190;2023-11-18T11:41:18;101088.02;;;3.86;100.00
41706;BME280;27385;51.096;17.190;2023-11-18T11:43:54;101097.18;;;3.84;100.00
41706;BME280;27385;51.096;17.190;2023-11-18T11:46:28;101096.66;;;3.81;100.00
41706;BME280;27385;51.096;17.190;2023-11-18T11:50:00;101093.78;;;3.78;100.00
41706;BME280;27385;51.096;17.190;2023-11-18T11:52:39;101097.27;;;3.78;100.00
41706;BME280;27385;51.096;17.190;2023-11-18T11:55:18;101096.45;;;3.79;100.00
41706;BME280;27385;51.096;17.190;2023-11-18T12:01:21;101093.81;;;3.82;100.00
41706;BME280;27385;51.096;17.190;2023-11-18T12:04:27;101096.38;;;3.86;100.00
41706;BME280;27385;51.096;17.190;2023-11-18T12:07:18;101093.11;;;3.89;100.00
41706;BME280;27385;51.096;17.190;2023-11-18T12:09:51;101088.55;;;3.93;100.00
41706;BME280;27385;51.096;17.190;2023-11-18T12:13:08;101097.70;;;4.00;100.00
41706;BME280;27385;51.096;17.190;2023-11-18T12:16:05;101094.95;;;4.05;100.00
41706;BME280;27385;51.096;17.190;2023-11-18T12:19:31;101096.89;;;4.08;100.00
41706;BME280;27385;51.096;17.190;2023-11-18T12:23:04;101098.78;;;4.08;100.00
41706;BME280;27385;51.096;17.190;2023-11-18T12:29:33;101091.41;;;4.11;100.00
41706;BME280;27385;51.096;17.190;2023-11-18T12:32:08;101100.76;;;4.09;100.00
41706;BME280;27385;51.096;17.190;2023-11-18T12:34:53;101098.00;;;4.08;100.00
41706;BME280;27385;51.096;17.190;2023-11-18T12:40:31;101096.17;;;4.09;100.00
41706;BME280;27385;51.096;17.190;2023-11-18T12:43:12;101095.05;;;4.11;100.00
41706;BME280;27385;51.096;17.190;2023-11-18T12:49:05;101102.19;;;4.14;100.00
41706;BME280;27385;51.096;17.190;2023-11-18T12:51:44;101108.03;;;4.14;100.00
41706;BME280;27385;51.096;17.190;2023-11-18T12:54:38;101104.30;;;4.16;100.00
41706;BME280;27385;51.096;17.190;2023-11-18T12:57:52;101105.96;;;4.15;100.00
41706;BME280;27385;51.096;17.190;2023-11-18T13:00:24;101103.12;;;4.15;99.94
41706;BME280;27385;51.096;17.190;2023-11-18T13:02:58;101099.63;;;4.17;100.00
41706;BME280;27385;51.096;17.190;2023-11-18T13:05:52;101104.33;;;4.19;99.93
41706;BME280;27385;51.096;17.190;2023-11-18T13:08:25;101108.13;;;4.18;99.85
41706;BME280;27385;51.096;17.190;2023-11-18T13:11:00;101106.61;;;4.20;99.98
41706;BME280;27385;51.096;17.190;2023-11-18T13:13:34;101107.01;;;4.19;99.74
41706;BME280;27385;51.096;17.190;2023-11-18T13:16:05;101103.48;;;4.18;99.41
41706;BME280;27385;51.096;17.190;2023-11-18T13:18:43;101107.11;;;4.18;99.40
41706;BME280;27385;51.096;17.190;2023-11-18T13:21:30;101110.67;;;4.18;99.16
41706;BME280;27385;51.096;17.190;2023-11-18T13:24:09;101112.84;;;4.15;98.55
41706;BME280;27385;51.096;17.190;2023-11-18T13:27:10;101109.45;;;4.14;99.00
41706;BME280;27385;51.096;17.190;2023-11-18T13:30:03;101110.08;;;4.15;98.88
41706;BME280;27385;51.096;17.190;2023-11-18T13:32:41;101114.42;;;4.15;99.04
41706;BME280;27385;51.096;17.190;2023-11-18T13:35:13;101112.09;;;4.17;99.40
41706;BME280;27385;51.096;17.190;2023-11-18T13:37:52;101111.01;;;4.22;99.65
41706;BME280;27385;51.096;17.190;2023-11-18T13:40:22;101106.36;;;4.26;99.53